Cable, Wisconsin
Current Conditions -  °F | °C
As of 12:53 AM on Sunday 26 Oct 2014 (Local Time) from KHYR Reporting Station
Clear Clear  
Wind Chill: 33°   Ceiling: Unl
Heat Index: 33°   Visibility: 10mi
Dew Point: 26°   Wind: 0mph
Humidity: 75%   Direction: NA
Pressure: 30"   Gusts: NA
Location:  46.21°N, 91.29°W
Report Text: KHYR 260553Z AUTO 00000KT 10SM CLR 01/M03 A3000 RMK AO2 SLP168 T00061033 10122 20006 401670006 53002
Loading
Personal Weather Stations






























Interactive Weather Map
Tropical Storm Tracking
New forecast layout! Learn more

10-Day Weather Forecast

Advertisements
Track Severe Weather on mobile